Time;durP1;ratioP1;P1;durP2;ratioP2;P2;SDS_P1;SDS_P2;PMS_P1;PMS_P2;Temp;Humidity;BMP_temperature;BMP_pressure;BME280_temperature;BME280_humidity;BME280_pressure;Samples;Min_cycle;Max_cycle;Signal;HPM_P1;HPM_P2
2022/05/20 00:01:50;;;;;;;4.32;3.47;;;;;;;;;;5036024;28;20051;-87
2022/05/20 00:04:17;;;;;;;5.18;3.63;;;;;;;;;;5035454;28;20127;-86
2022/05/20 00:06:45;;;;;;;3.35;3.05;;;;;;;;;;5035360;28;20087;-86
2022/05/20 00:09:12;;;;;;;3.53;3.28;;;;;;;;;;5040769;28;20048;-86
2022/05/20 00:11:39;;;;;;;3.38;2.92;;;;;;;;;;5042013;28;20136;-86
2022/05/20 00:14:06;;;;;;;4.20;3.88;;;;;;;;;;5042081;28;20045;-87
2022/05/20 00:16:35;;;;;;;4.80;3.50;;;;;;;;;;5042219;28;20136;-87
2022/05/20 00:19:06;;;;;;;5.38;4.20;;;;;;;;;;5042193;28;20049;-87
2022/05/20 00:21:39;;;;;;;6.30;3.65;;;;;;;;;;5043148;28;20059;-87
2022/05/20 00:24:07;;;;;;;5.25;3.72;;;;;;;;;;5042010;28;20136;-87
2022/05/20 00:26:34;;;;;;;6.55;4.25;;;;;;;;;;5059678;28;20463;-86
2022/05/20 00:29:01;;;;;;;4.13;3.10;;;;;;;;;;5041964;28;20642;-86
2022/05/20 00:31:28;;;;;;;3.90;3.53;;;;;;;;;;5059478;28;20049;-86
2022/05/20 00:33:56;;;;;;;4.72;3.80;;;;;;;;;;5041794;28;20049;-86
2022/05/20 00:36:23;;;;;;;3.85;3.40;;;;;;;;;;5041862;28;20141;-86
2022/05/20 00:38:51;;;;;;;4.38;3.38;;;;;;;;;;5042116;28;20041;-86
2022/05/20 00:41:18;;;;;;;3.65;3.45;;;;;;;;;;5041859;28;20048;-86
2022/05/20 00:43:46;;;;;;;6.75;3.58;;;;;;;;;;5041911;28;20481;-86
2022/05/20 00:46:20;;;;;;;7.00;3.38;;;;;;;;;;5041784;28;20132;-85
2022/05/20 00:48:48;;;;;;;4.40;3.42;;;;;;;;;;5042006;28;20045;-86
2022/05/20 00:51:18;;;;;;;5.38;3.53;;;;;;;;;;5042003;28;20112;-85
2022/05/20 00:53:56;;;;;;;4.45;3.67;;;;;;;;;;5059355;28;20573;-86
2022/05/20 00:56:25;;;;;;;4.20;3.85;;;;;;;;;;5044866;28;20063;-86
2022/05/20 00:58:54;;;;;;;9.35;3.83;;;;;;;;;;5062122;28;20140;-86
2022/05/20 01:01:21;;;;;;;4.40;3.70;;;;;;;;;;5059315;28;20505;-86
2022/05/20 01:03:51;;;;;;;10.27;3.47;;;;;;;;;;5042025;28;20045;-86
2022/05/20 01:06:19;;;;;;;3.47;2.92;;;;;;;;;;5059159;28;20059;-86
2022/05/20 01:08:46;;;;;;;6.35;3.38;;;;;;;;;;5041841;28;20466;-86
2022/05/20 01:11:13;;;;;;;9.35;4.13;;;;;;;;;;5041733;28;20080;-86
2022/05/20 01:13:40;;;;;;;9.95;4.30;;;;;;;;;;5059432;28;20566;-86
2022/05/20 01:16:11;;;;;;;5.15;3.92;;;;;;;;;;5041464;28;20094;-86
2022/05/20 01:18:40;;;;;;;4.43;3.65;;;;;;;;;;5059612;28;20052;-86
2022/05/20 01:21:08;;;;;;;5.20;3.35;;;;;;;;;;5054732;28;20061;-85
2022/05/20 01:23:36;;;;;;;5.30;4.35;;;;;;;;;;5055923;28;20131;-86
2022/05/20 01:26:04;;;;;;;4.35;3.70;;;;;;;;;;5038182;28;20059;-86
2022/05/20 01:28:32;;;;;;;4.53;3.70;;;;;;;;;;5038603;28;20055;-86
2022/05/20 01:31:04;;;;;;;4.28;3.67;;;;;;;;;;5055748;28;20485;-86
2022/05/20 01:33:37;;;;;;;4.50;3.73;;;;;;;;;;5038315;28;20055;-85
2022/05/20 01:36:07;;;;;;;7.47;3.90;;;;;;;;;;5037994;28;20390;-85
2022/05/20 01:38:35;;;;;;;5.00;3.50;;;;;;;;;;5038174;28;20049;-85
2022/05/20 01:41:10;;;;;;;4.50;3.97;;;;;;;;;;5038165;28;20044;-86
2022/05/20 01:43:37;;;;;;;5.68;3.60;;;;;;;;;;5055619;28;20136;-86
2022/05/20 01:46:24;;;;;;;7.00;3.75;;;;;;;;;;5055238;28;20109;-86
2022/05/20 01:49:10;;;;;;;4.45;3.95;;;;;;;;;;5055409;28;20127;-86
2022/05/20 01:52:04;;;;;;;7.95;3.58;;;;;;;;;;5055413;28;20059;-85
2022/05/20 01:54:50;;;;;;;5.40;4.00;;;;;;;;;;5051281;28;20047;-87
2022/05/20 01:57:30;;;;;;;5.85;3.40;;;;;;;;;;5037477;28;20127;-87
2022/05/20 02:00:05;;;;;;;4.75;4.28;;;;;;;;;;5055314;28;20053;-86
2022/05/20 02:02:35;;;;;;;5.30;3.95;;;;;;;;;;5037442;28;20110;-87
2022/05/20 02:05:07;;;;;;;3.97;3.78;;;;;;;;;;5029153;28;20523;-87
2022/05/20 02:07:36;;;;;;;4.15;3.70;;;;;;;;;;5037222;28;20089;-86
2022/05/20 02:10:03;;;;;;;6.95;3.38;;;;;;;;;;5037224;28;20080;-87
2022/05/20 02:12:33;;;;;;;4.15;3.22;;;;;;;;;;5037612;28;20051;-86
2022/05/20 02:15:22;;;;;;;6.30;5.38;;;;;;;;;;5058870;28;20045;-86
2022/05/20 02:17:52;;;;;;;5.45;4.95;;;;;;;;;;5054379;28;20053;-86
2022/05/20 02:20:35;;;;;;;5.32;4.82;;;;;;;;;;5036854;28;20087;-86
2022/05/20 02:23:04;;;;;;;7.57;4.75;;;;;;;;;;5036617;28;20329;-86
2022/05/20 02:25:34;;;;;;;8.18;5.28;;;;;;;;;;5036808;28;20083;-86
2022/05/20 02:28:08;;;;;;;6.75;4.45;;;;;;;;;;5054196;28;20045;-86
2022/05/20 02:30:35;;;;;;;10.57;4.60;;;;;;;;;;5036590;28;20589;-86
2022/05/20 02:33:06;;;;;;;4.70;4.40;;;;;;;;;;5028430;28;20452;-86
2022/05/20 02:35:34;;;;;;;5.80;4.80;;;;;;;;;;5036855;28;20476;-86
2022/05/20 02:38:06;;;;;;;7.28;4.50;;;;;;;;;;5036386;28;20088;-87
2022/05/20 02:40:33;;;;;;;4.55;4.15;;;;;;;;;;5036508;28;20053;-86
2022/05/20 02:43:00;;;;;;;9.43;4.28;;;;;;;;;;5053942;28;20049;-86
2022/05/20 02:45:28;;;;;;;4.35;4.05;;;;;;;;;;5036412;28;20128;-86
2022/05/20 02:47:56;;;;;;;8.25;3.75;;;;;;;;;;5036662;28;20472;-87
2022/05/20 02:50:23;;;;;;;6.68;5.78;;;;;;;;;;5036279;28;20408;-87
2022/05/20 02:52:50;;;;;;;6.97;6.13;;;;;;;;;;5054009;28;20503;-87
2022/05/20 02:55:17;;;;;;;16.83;8.63;;;;;;;;;;5035909;28;20064;-86
2022/05/20 02:57:45;;;;;;;13.68;8.52;;;;;;;;;;5036439;28;20049;-87
2022/05/20 03:04:09;;;;;;;13.43;8.32;;;;;;;;;;5053666;28;20066;-86
2022/05/20 03:05:56;;;;;;;6.47;5.88;;;;;;;;;;5053272;28;20488;-86
2022/05/20 03:08:23;;;;;;;7.75;6.13;;;;;;;;;;5036078;28;20091;-87
2022/05/20 03:10:50;;;;;;;6.07;4.93;;;;;;;;;;5036085;28;20128;-86
2022/05/20 03:13:19;;;;;;;8.15;4.95;;;;;;;;;;5053406;28;20049;-86
2022/05/20 03:15:46;;;;;;;8.32;5.95;;;;;;;;;;5053562;28;20485;-86
2022/05/20 03:18:14;;;;;;;9.70;6.45;;;;;;;;;;5035719;28;20077;-86
2022/05/20 03:20:42;;;;;;;6.80;6.15;;;;;;;;;;5053346;28;20132;-86
2022/05/20 03:23:10;;;;;;;9.20;7.32;;;;;;;;;;5053374;28;20048;-87
2022/05/20 03:25:38;;;;;;;9.45;7.15;;;;;;;;;;5036222;28;20057;-86
2022/05/20 03:28:10;;;;;;;9.65;7.47;;;;;;;;;;5036797;28;20436;-86
2022/05/20 03:30:37;;;;;;;11.45;7.00;;;;;;;;;;5037908;28;20517;-87
2022/05/20 03:33:04;;;;;;;10.80;6.32;;;;;;;;;;5055353;28;20120;-86
2022/05/20 03:35:32;;;;;;;9.30;7.45;;;;;;;;;;5035687;28;20081;-85
2022/05/20 03:37:59;;;;;;;10.20;7.90;;;;;;;;;;5035679;28;20053;-86
2022/05/20 03:40:26;;;;;;;8.48;7.68;;;;;;;;;;5053238;28;20060;-86
2022/05/20 03:42:53;;;;;;;10.57;8.20;;;;;;;;;;5052643;28;20103;-86
2022/05/20 03:45:20;;;;;;;17.80;10.10;;;;;;;;;;5035832;28;20187;-87
2022/05/20 03:47:47;;;;;;;23.10;11.65;;;;;;;;;;5053393;28;20499;-87
2022/05/20 03:50:13;;;;;;;11.35;9.65;;;;;;;;;;5035631;28;20055;-86
2022/05/20 03:52:40;;;;;;;11.68;8.85;;;;;;;;;;5035874;28;20413;-87
2022/05/20 03:55:08;;;;;;;14.32;9.68;;;;;;;;;;5052838;28;20140;-87
2022/05/20 03:57:35;;;;;;;11.55;9.90;;;;;;;;;;5053024;28;20045;-85
2022/05/20 04:00:03;;;;;;;11.77;10.32;;;;;;;;;;5052891;28;20052;-87
2022/05/20 04:02:30;;;;;;;11.75;10.52;;;;;;;;;;5035398;28;20053;-86
2022/05/20 04:04:59;;;;;;;21.05;11.57;;;;;;;;;;5035829;28;20045;-86
2022/05/20 04:07:27;;;;;;;16.88;10.68;;;;;;;;;;5052872;28;20080;-86
2022/05/20 04:09:55;;;;;;;10.00;8.63;;;;;;;;;;5035260;28;20148;-87
2022/05/20 04:12:25;;;;;;;8.93;7.93;;;;;;;;;;5052598;28;20591;-87
2022/05/20 04:14:53;;;;;;;22.27;9.52;;;;;;;;;;5052669;28;20092;-87
2022/05/20 04:17:20;;;;;;;8.88;7.97;;;;;;;;;;5035426;28;20159;-87
2022/05/20 04:19:47;;;;;;;11.70;8.15;;;;;;;;;;5035282;28;20051;-87
2022/05/20 04:22:16;;;;;;;13.23;9.93;;;;;;;;;;5034960;28;20091;-87
2022/05/20 04:24:43;;;;;;;12.18;10.07;;;;;;;;;;5052576;28;20519;-86
2022/05/20 04:27:10;;;;;;;14.82;12.45;;;;;;;;;;5035119;28;20137;-87
2022/05/20 04:29:38;;;;;;;24.73;15.48;;;;;;;;;;5035203;28;20152;-87
2022/05/20 04:32:05;;;;;;;50.72;24.25;;;;;;;;;;5034990;28;20144;-87
2022/05/20 04:34:32;;;;;;;33.33;20.65;;;;;;;;;;5052619;28;20087;-87
2022/05/20 04:37:00;;;;;;;34.85;20.55;;;;;;;;;;5034858;28;20408;-87
2022/05/20 04:39:27;;;;;;;31.83;18.98;;;;;;;;;;5034868;28;20049;-87
2022/05/20 04:47:28;;;;;;;20.13;13.38;;;;;;;;;;5055429;28;20049;-87
2022/05/20 04:49:56;;;;;;;23.77;15.40;;;;;;;;;;5040141;28;20128;-87
2022/05/20 04:52:23;;;;;;;32.92;19.98;;;;;;;;;;5052426;28;20124;-86
2022/05/20 04:54:50;;;;;;;33.67;20.88;;;;;;;;;;5036713;28;20123;-87
2022/05/20 04:57:19;;;;;;;33.85;19.20;;;;;;;;;;5038513;28;20493;-87
2022/05/20 04:59:46;;;;;;;27.35;17.30;;;;;;;;;;5038442;28;20140;-87
2022/05/20 05:02:13;;;;;;;30.98;16.52;;;;;;;;;;5038212;28;20505;-87
2022/05/20 05:04:40;;;;;;;39.53;16.42;;;;;;;;;;5055861;28;20053;-87
2022/05/20 05:07:09;;;;;;;37.45;13.10;;;;;;;;;;5038453;28;20127;-87
2022/05/20 05:09:38;;;;;;;19.45;9.32;;;;;;;;;;5056022;28;20135;-88
2022/05/20 05:12:05;;;;;;;14.48;7.53;;;;;;;;;;5055896;28;20059;-87
2022/05/20 05:14:40;;;;;;;10.35;5.90;;;;;;;;;;5039022;28;20040;-87
2022/05/20 05:17:08;;;;;;;9.77;4.60;;;;;;;;;;5055739;28;20135;-87
2022/05/20 05:19:36;;;;;;;7.72;4.15;;;;;;;;;;5038392;28;20049;-88
2022/05/20 05:22:07;;;;;;;4.82;3.67;;;;;;;;;;5038124;28;20056;-88
2022/05/20 05:24:35;;;;;;;5.57;3.45;;;;;;;;;;5037820;28;20461;-88
2022/05/20 05:27:04;;;;;;;5.80;3.38;;;;;;;;;;5047381;28;20088;-88
2022/05/20 05:29:33;;;;;;;3.55;3.25;;;;;;;;;;5038101;28;20053;-87
2022/05/20 05:32:00;;;;;;;2.92;2.60;;;;;;;;;;5038015;28;20132;-88
2022/05/20 05:34:28;;;;;;;3.47;2.67;;;;;;;;;;5038316;28;20071;-88
2022/05/20 05:36:55;;;;;;;2.75;2.50;;;;;;;;;;5038298;28;20055;-88
2022/05/20 05:39:22;;;;;;;2.63;2.40;;;;;;;;;;5038193;28;20045;-87
2022/05/20 05:41:49;;;;;;;3.15;2.85;;;;;;;;;;5038098;28;20552;-88
2022/05/20 05:44:16;;;;;;;2.92;2.75;;;;;;;;;;5055474;28;20045;-88
2022/05/20 05:46:43;;;;;;;4.40;2.65;;;;;;;;;;5055889;28;20424;-88
2022/05/20 05:49:11;;;;;;;8.27;3.20;;;;;;;;;;5055648;28;20140;-88
2022/05/20 05:51:38;;;;;;;3.05;2.75;;;;;;;;;;5038248;28;20526;-88
2022/05/20 05:54:05;;;;;;;2.88;2.65;;;;;;;;;;5055569;28;20124;-87
2022/05/20 05:56:32;;;;;;;3.53;2.83;;;;;;;;;;5053430;28;20481;-88
2022/05/20 05:58:59;;;;;;;3.08;2.78;;;;;;;;;;5074621;28;20083;-89
2022/05/20 06:01:26;;;;;;;3.10;2.80;;;;;;;;;;5075075;28;20048;-88
2022/05/20 06:03:57;;;;;;;4.75;4.22;;;;;;;;;;5075504;28;20048;-88
2022/05/20 06:06:24;;;;;;;4.43;3.13;;;;;;;;;;5073937;28;20534;-88
2022/05/20 06:08:51;;;;;;;3.15;2.90;;;;;;;;;;5074335;28;20044;-88
2022/05/20 06:11:19;;;;;;;3.35;2.85;;;;;;;;;;5075238;28;20412;-88
2022/05/20 06:13:46;;;;;;;4.05;2.70;;;;;;;;;;5074223;28;20095;-85
2022/05/20 06:16:18;;;;;;;3.10;2.70;;;;;;;;;;5074175;28;20053;-86
2022/05/20 06:18:45;;;;;;;5.40;2.83;;;;;;;;;;5074238;28;20067;-86
2022/05/20 06:21:13;;;;;;;4.78;3.30;;;;;;;;;;5074668;28;20131;-86
2022/05/20 06:23:40;;;;;;;3.53;2.72;;;;;;;;;;5074076;28;20080;-86
2022/05/20 06:26:07;;;;;;;7.18;3.40;;;;;;;;;;5073909;28;20497;-86
2022/05/20 06:28:43;;;;;;;5.28;2.75;;;;;;;;;;5074047;28;20059;-87
2022/05/20 06:31:10;;;;;;;3.63;3.30;;;;;;;;;;5075010;28;20048;-86
2022/05/20 06:33:38;;;;;;;5.65;2.95;;;;;;;;;;5073869;28;20053;-86
2022/05/20 06:41:37;;;;;;;6.05;2.80;;;;;;;;;;5075030;28;20131;-86
2022/05/20 06:44:04;;;;;;;13.02;3.60;;;;;;;;;;5073386;28;20078;-86
2022/05/20 06:46:32;;;;;;;5.97;3.40;;;;;;;;;;5073743;28;20045;-86
2022/05/20 06:49:00;;;;;;;5.20;2.75;;;;;;;;;;5073551;28;20049;-87
2022/05/20 06:51:32;;;;;;;2.80;2.45;;;;;;;;;;5073677;28;20481;-86
2022/05/20 06:54:00;;;;;;;2.35;2.25;;;;;;;;;;5073401;28;20143;-86
2022/05/20 06:56:29;;;;;;;2.88;2.38;;;;;;;;;;5074547;28;20561;-87
2022/05/20 06:58:56;;;;;;;4.55;2.50;;;;;;;;;;5074094;28;20049;-86
2022/05/20 07:01:23;;;;;;;3.97;2.30;;;;;;;;;;5056641;28;20049;-86
2022/05/20 07:03:51;;;;;;;6.53;2.58;;;;;;;;;;5056996;28;20055;-86
2022/05/20 07:06:19;;;;;;;2.58;1.92;;;;;;;;;;5056818;28;20048;-86
2022/05/20 07:08:48;;;;;;;5.93;2.63;;;;;;;;;;5056534;28;20053;-87
2022/05/20 07:11:18;;;;;;;3.25;2.95;;;;;;;;;;5056395;28;20045;-86
2022/05/20 07:13:45;;;;;;;3.53;2.67;;;;;;;;;;5056540;28;20056;-86
2022/05/20 07:16:17;;;;;;;5.10;2.70;;;;;;;;;;5072398;28;20049;-86
2022/05/20 07:18:44;;;;;;;5.47;3.00;;;;;;;;;;5055501;28;20118;-87
2022/05/20 07:21:11;;;;;;;3.40;2.80;;;;;;;;;;5074220;28;20865;-87
2022/05/20 07:23:39;;;;;;;4.72;2.78;;;;;;;;;;5056554;28;20389;-87
2022/05/20 07:26:06;;;;;;;2.88;2.67;;;;;;;;;;5073476;28;20135;-86
2022/05/20 07:28:34;;;;;;;6.53;3.25;;;;;;;;;;5073794;28;20062;-88
2022/05/20 07:31:01;;;;;;;3.58;3.00;;;;;;;;;;5056211;28;20072;-85
2022/05/20 07:33:30;;;;;;;4.13;3.10;;;;;;;;;;5056157;28;20079;-87
2022/05/20 07:35:57;;;;;;;3.42;2.90;;;;;;;;;;5055937;28;20044;-86
2022/05/20 07:38:24;;;;;;;4.45;3.45;;;;;;;;;;5055880;28;20127;-88
2022/05/20 07:40:55;;;;;;;3.78;3.40;;;;;;;;;;5073491;28;20062;-87
2022/05/20 07:43:22;;;;;;;6.75;3.60;;;;;;;;;;5073718;28;20485;-86
2022/05/20 07:45:50;;;;;;;5.55;3.75;;;;;;;;;;5055798;28;20454;-86
2022/05/20 07:48:17;;;;;;;8.07;3.90;;;;;;;;;;5055830;28;20051;-86
2022/05/20 07:50:45;;;;;;;8.13;3.55;;;;;;;;;;5055905;28;20131;-87
2022/05/20 07:53:20;;;;;;;14.77;4.32;;;;;;;;;;5055676;28;20072;-86
2022/05/20 07:55:53;;;;;;;9.30;3.90;;;;;;;;;;5057246;28;20095;-89
2022/05/20 07:58:22;;;;;;;3.67;3.37;;;;;;;;;;5072669;28;20058;-88
2022/05/20 08:01:10;;;;;;;7.00;3.88;;;;;;;;;;5072522;28;20055;-88
2022/05/20 08:06:24;;;;;;;6.70;4.18;;;;;;;;;;5073483;28;20052;-88
2022/05/20 08:08:53;;;;;;;4.13;3.65;;;;;;;;;;5072366;28;20044;-87
2022/05/20 08:11:20;;;;;;;6.85;3.60;;;;;;;;;;5072321;28;20061;-91
2022/05/20 08:13:50;;;;;;;4.57;4.15;;;;;;;;;;5072337;28;20063;-90
2022/05/20 08:16:18;;;;;;;4.25;3.85;;;;;;;;;;5072695;28;20060;-87
2022/05/20 08:18:46;;;;;;;4.50;4.10;;;;;;;;;;5072424;28;20050;-87
2022/05/20 08:21:13;;;;;;;5.95;4.35;;;;;;;;;;5072241;28;20080;-90
2022/05/20 08:23:40;;;;;;;8.60;4.80;;;;;;;;;;5071972;28;20072;-88
2022/05/20 08:26:07;;;;;;;12.40;5.10;;;;;;;;;;5071870;28;20083;-89
2022/05/20 08:28:34;;;;;;;7.03;4.03;;;;;;;;;;5071842;28;20600;-88
2022/05/20 08:31:01;;;;;;;4.40;3.60;;;;;;;;;;5075662;28;20075;-88
2022/05/20 08:33:29;;;;;;;4.60;3.75;;;;;;;;;;5075999;28;20140;-88
2022/05/20 08:35:57;;;;;;;3.95;3.72;;;;;;;;;;5075700;28;20073;-88
2022/05/20 08:38:25;;;;;;;8.88;4.47;;;;;;;;;;5075903;28;20049;-88
2022/05/20 08:40:53;;;;;;;5.50;4.05;;;;;;;;;;5076371;28;20048;-88
2022/05/20 08:43:29;;;;;;;4.35;4.05;;;;;;;;;;5075876;28;20502;-88
2022/05/20 08:45:57;;;;;;;4.10;3.90;;;;;;;;;;5075863;28;20135;-89
2022/05/20 08:48:24;;;;;;;5.43;4.20;;;;;;;;;;5075779;28;20143;-88
2022/05/20 08:50:53;;;;;;;5.10;4.68;;;;;;;;;;5075678;28;20139;-88
2022/05/20 08:53:23;;;;;;;6.40;4.80;;;;;;;;;;5075453;28;20049;-88
2022/05/20 08:55:50;;;;;;;4.78;4.38;;;;;;;;;;5075034;28;20457;-88
2022/05/20 08:58:19;;;;;;;4.53;4.13;;;;;;;;;;5075341;28;20075;-88
2022/05/20 09:00:46;;;;;;;4.40;4.00;;;;;;;;;;5075388;28;20056;-88
2022/05/20 09:03:13;;;;;;;4.47;4.07;;;;;;;;;;5075168;28;20048;-88
2022/05/20 09:05:42;;;;;;;5.65;5.15;;;;;;;;;;5075415;28;20416;-88
2022/05/20 09:08:21;;;;;;;7.88;4.97;;;;;;;;;;5074881;28;20078;-87
2022/05/20 09:10:53;;;;;;;4.80;3.80;;;;;;;;;;5075265;28;20075;-87
2022/05/20 09:16:15;;;;;;;7.30;4.40;;;;;;;;;;5044958;28;20138;-88
2022/05/20 09:18:43;;;;;;;4.57;3.95;;;;;;;;;;5074883;28;20059;-87
2022/05/20 09:21:28;;;;;;;7.72;4.32;;;;;;;;;;5074814;28;20076;-88
2022/05/20 09:23:57;;;;;;;9.55;4.43;;;;;;;;;;5074829;28;20049;-87
2022/05/20 09:26:26;;;;;;;6.47;4.63;;;;;;;;;;5075101;28;20045;-89
2022/05/20 09:28:59;;;;;;;8.35;4.80;;;;;;;;;;5074660;28;20076;-88
2022/05/20 09:31:32;;;;;;;9.05;5.43;;;;;;;;;;5075821;28;20044;-89
2022/05/20 09:34:12;;;;;;;6.70;4.70;;;;;;;;;;5074684;28;20076;-88
2022/05/20 09:36:44;;;;;;;6.13;5.18;;;;;;;;;;5074859;28;20488;-88
2022/05/20 09:39:15;;;;;;;5.15;4.75;;;;;;;;;;5075502;28;20076;-87
2022/05/20 09:41:46;;;;;;;5.53;4.82;;;;;;;;;;5074383;28;20048;-87
2022/05/20 09:44:15;;;;;;;7.00;4.70;;;;;;;;;;5074468;28;20102;-88
2022/05/20 09:46:51;;;;;;;4.82;4.43;;;;;;;;;;5074643;28;20410;-90
2022/05/20 09:49:23;;;;;;;6.03;5.43;;;;;;;;;;5074636;28;20052;-88
2022/05/20 09:51:54;;;;;;;5.95;5.35;;;;;;;;;;5074296;28;20080;-88
2022/05/20 09:54:26;;;;;;;4.30;4.00;;;;;;;;;;5074479;28;20048;-88
2022/05/20 09:56:58;;;;;;;5.28;3.75;;;;;;;;;;5075710;28;20564;-89
2022/05/20 09:59:30;;;;;;;3.95;3.55;;;;;;;;;;5058271;28;20054;-88
2022/05/20 10:02:04;;;;;;;8.15;3.53;;;;;;;;;;5057604;28;20132;-88
2022/05/20 10:04:41;;;;;;;6.82;3.10;;;;;;;;;;5057784;28;20146;-87
2022/05/20 10:07:13;;;;;;;6.82;3.35;;;;;;;;;;5057667;28;20083;-89
2022/05/20 10:10:00;;;;;;;3.83;3.13;;;;;;;;;;5057554;28;20048;-87
2022/05/20 10:12:31;;;;;;;5.35;3.67;;;;;;;;;;5075014;28;20076;-88
2022/05/20 10:15:03;;;;;;;3.58;2.83;;;;;;;;;;5057320;28;20169;-87
2022/05/20 10:17:44;;;;;;;8.65;3.72;;;;;;;;;;5057734;28;20040;-89
2022/05/20 10:20:18;;;;;;;5.60;3.40;;;;;;;;;;5075065;28;20084;-88
2022/05/20 10:23:05;;;;;;;7.40;3.50;;;;;;;;;;5057734;28;20080;-89
2022/05/20 10:25:51;;;;;;;4.88;3.05;;;;;;;;;;5075421;28;20091;-88
2022/05/20 10:34:16;;;;;;;3.10;2.22;;;;;;;;;;5074598;28;20551;-91
2022/05/20 10:36:49;;;;;;;6.47;2.70;;;;;;;;;;5057361;28;20052;-87
2022/05/20 10:39:16;;;;;;;;;;;;;;;;;;5057483;28;20050;-90
2022/05/20 10:42:12;;;;;;;3.10;2.42;;;;;;;;;;5059961;28;20356;-87
2022/05/20 10:50:24;;;;;;;1.48;1.38;;;;;;;;;;5069194;28;20463;-92
2022/05/20 10:52:58;;;;;;;1.90;1.35;;;;;;;;;;5056260;28;20531;-86
2022/05/20 10:55:25;;;;;;;;;;;;;;;;;;5056446;28;20047;-85
2022/05/20 10:58:04;;;;;;;4.50;1.45;;;;;;;;;;5056447;28;20011;-86
2022/05/20 11:00:58;;;;;;;1.58;1.17;;;;;;;;;;5056202;28;20059;-87
2022/05/20 11:03:40;;;;;;;1.58;1.48;;;;;;;;;;5053413;28;20440;-85
2022/05/20 11:06:19;;;;;;;2.95;1.50;;;;;;;;;;5073677;28;20049;-88
2022/05/20 11:08:52;;;;;;;2.13;1.50;;;;;;;;;;5073834;28;20079;-86
2022/05/20 11:11:37;;;;;;;4.30;1.50;;;;;;;;;;5073764;28;20450;-84
2022/05/20 11:14:23;;;;;;;8.38;1.90;;;;;;;;;;5044363;28;20191;-84
2022/05/20 11:17:01;;;;;;;5.25;1.77;;;;;;;;;;5057412;28;20067;-88
2022/05/20 11:19:32;;;;;;;13.00;2.80;;;;;;;;;;5055915;28;20060;-85
2022/05/20 11:22:12;;;;;;;3.03;1.70;;;;;;;;;;5056042;28;20467;-85
2022/05/20 11:24:39;;;;;;;3.40;1.77;;;;;;;;;;5055706;28;20048;-87
2022/05/20 11:27:06;;;;;;;3.10;1.67;;;;;;;;;;5055760;28;20086;-87
2022/05/20 11:29:42;;;;;;;4.10;1.92;;;;;;;;;;5055890;28;20041;-85
2022/05/20 11:32:18;;;;;;;2.78;1.95;;;;;;;;;;5055333;28;20169;-85
2022/05/20 11:34:55;;;;;;;2.13;2.00;;;;;;;;;;5055951;28;20144;-86
2022/05/20 11:37:41;;;;;;;2.75;1.67;;;;;;;;;;5055790;28;20131;-86
2022/05/20 11:40:14;;;;;;;4.35;1.90;;;;;;;;;;5055714;28;20135;-86
2022/05/20 11:43:00;;;;;;;1.70;1.60;;;;;;;;;;5055475;28;20136;-86
2022/05/20 11:45:51;;;;;;;3.42;1.63;;;;;;;;;;5055476;28;20468;-86
2022/05/20 11:48:20;;;;;;;2.35;1.50;;;;;;;;;;5055359;28;20058;-86
2022/05/20 11:50:58;;;;;;;3.90;2.22;;;;;;;;;;5055284;28;20059;-86
2022/05/20 11:53:41;;;;;;;3.30;1.77;;;;;;;;;;5071382;28;20040;-86
2022/05/20 11:56:16;;;;;;;4.25;1.80;;;;;;;;;;5071717;28;20095;-86
2022/05/20 11:59:07;;;;;;;2.33;2.00;;;;;;;;;;5052920;28;20139;-86
2022/05/20 12:01:36;;;;;;;3.78;1.80;;;;;;;;;;5054453;28;20075;-87
2022/05/20 12:04:08;;;;;;;4.32;1.83;;;;;;;;;;5071419;28;20045;-85
2022/05/20 12:06:41;;;;;;;4.40;2.22;;;;;;;;;;5054409;28;20496;-85
2022/05/20 12:09:26;;;;;;;2.38;1.70;;;;;;;;;;5054605;28;20098;-86
2022/05/20 12:12:09;;;;;;;2.15;1.58;;;;;;;;;;5053904;28;20127;-85
2022/05/20 12:14:54;;;;;;;5.93;1.75;;;;;;;;;;5072152;28;20453;-86
2022/05/20 12:17:32;;;;;;;2.00;1.75;;;;;;;;;;5054353;28;20052;-85
2022/05/20 12:25:46;;;;;;;3.05;2.03;;;;;;;;;;5071761;28;20139;-86
2022/05/20 12:28:23;;;;;;;6.40;2.30;;;;;;;;;;5071509;28;20079;-86
2022/05/20 12:31:05;;;;;;;5.07;1.80;;;;;;;;;;5072040;28;20083;-86
2022/05/20 12:33:45;;;;;;;3.40;1.60;;;;;;;;;;5054263;28;20044;-86
2022/05/20 12:36:15;;;;;;;5.03;1.92;;;;;;;;;;5054034;28;20475;-86
2022/05/20 12:38:42;;;;;;;2.67;1.85;;;;;;;;;;5054113;28;20048;-85
2022/05/20 12:41:29;;;;;;;4.85;1.75;;;;;;;;;;5071405;28;20408;-84
2022/05/20 12:43:58;;;;;;;3.80;2.08;;;;;;;;;;5005247;28;20422;-87
2022/05/20 12:46:51;;;;;;;2.40;2.00;;;;;;;;;;5055227;28;20090;-86
2022/05/20 12:49:20;;;;;;;6.68;2.25;;;;;;;;;;5050977;28;20044;-88
2022/05/20 12:51:54;;;;;;;5.95;2.30;;;;;;;;;;5054414;28;20477;-91
2022/05/20 12:54:23;;;;;;;4.95;2.22;;;;;;;;;;5055256;28;20049;-89
2022/05/20 12:56:55;;;;;;;5.57;2.53;;;;;;;;;;5064383;28;20076;-85
2022/05/20 12:59:24;;;;;;;13.82;2.75;;;;;;;;;;5071503;28;20154;-84
2022/05/20 13:01:53;;;;;;;10.63;2.63;;;;;;;;;;5068997;28;20099;-86
2022/05/20 13:04:22;;;;;;;6.53;2.58;;;;;;;;;;5065168;28;20102;-86
2022/05/20 13:06:49;;;;;;;5.00;2.70;;;;;;;;;;5069968;28;20485;-88
2022/05/20 13:09:25;;;;;;;5.60;3.00;;;;;;;;;;5064160;28;20102;-87
2022/05/20 13:11:52;;;;;;;4.57;2.90;;;;;;;;;;5070187;28;20092;-88
2022/05/20 13:14:30;;;;;;;6.05;2.28;;;;;;;;;;5066437;28;20076;-85
2022/05/20 13:17:01;;;;;;;9.18;2.97;;;;;;;;;;5073803;28;20496;-88
2022/05/20 13:19:48;;;;;;;9.70;3.30;;;;;;;;;;5069784;28;20084;-86
2022/05/20 13:22:17;;;;;;;5.47;2.70;;;;;;;;;;5075081;28;20059;-88
2022/05/20 13:24:44;;;;;;;3.53;2.70;;;;;;;;;;5070737;28;20147;-85
2022/05/20 13:27:13;;;;;;;4.15;2.90;;;;;;;;;;5074934;28;20164;-85
2022/05/20 13:29:41;;;;;;;5.43;2.95;;;;;;;;;;5075596;28;20063;-89
2022/05/20 13:32:21;;;;;;;4.20;2.70;;;;;;;;;;5069536;28;20106;-88
2022/05/20 13:34:50;;;;;;;6.95;2.60;;;;;;;;;;5075581;28;20079;-90
2022/05/20 13:37:20;;;;;;;7.53;2.50;;;;;;;;;;5074953;28;20147;-86
2022/05/20 13:39:52;;;;;;;19.95;3.33;;;;;;;;;;5071854;28;20131;-85
2022/05/20 13:42:19;;;;;;;6.05;3.17;;;;;;;;;;5068134;28;20125;-90
2022/05/20 13:44:46;;;;;;;6.60;2.42;;;;;;;;;;5073693;28;20079;-91
2022/05/20 13:50:02;;;;;;;8.13;2.72;;;;;;;;;;5075602;28;20072;-90
2022/05/20 13:52:30;;;;;;;7.05;2.88;;;;;;;;;;5077838;28;20055;-92
2022/05/20 13:55:00;;;;;;;7.32;2.83;;;;;;;;;;5075156;28;20091;-88
2022/05/20 13:57:33;;;;;;;9.88;2.60;;;;;;;;;;5068782;28;20075;-93
2022/05/20 14:00:06;;;;;;;3.30;2.60;;;;;;;;;;5073092;28;20060;-87
2022/05/20 14:02:35;;;;;;;5.28;2.45;;;;;;;;;;5073693;28;20055;-85
2022/05/20 14:05:14;;;;;;;4.95;2.78;;;;;;;;;;5074019;28;20072;-92
2022/05/20 14:07:48;;;;;;;13.23;3.08;;;;;;;;;;5072940;28;20519;-85
2022/05/20 14:10:15;;;;;;;7.28;2.72;;;;;;;;;;5073962;28;20568;-90
2022/05/20 14:12:47;;;;;;;5.10;2.90;;;;;;;;;;5073134;28;20075;-85
2022/05/20 14:15:33;;;;;;;10.40;2.72;;;;;;;;;;5073631;28;20071;-88
2022/05/20 14:18:05;;;;;;;4.85;2.85;;;;;;;;;;5072832;28;20056;-86
2022/05/20 14:20:40;;;;;;;9.75;2.88;;;;;;;;;;5072697;28;20049;-85
2022/05/20 14:23:08;;;;;;;7.65;2.85;;;;;;;;;;5073058;28;20068;-88
2022/05/20 14:25:53;;;;;;;5.30;2.55;;;;;;;;;;5072726;28;20060;-87
2022/05/20 14:28:23;;;;;;;7.68;2.83;;;;;;;;;;5072859;28;20045;-85
2022/05/20 14:30:50;;;;;;;6.93;2.90;;;;;;;;;;5073083;28;20135;-86
2022/05/20 14:33:31;;;;;;;5.13;2.60;;;;;;;;;;5072640;28;20049;-89
2022/05/20 14:36:00;;;;;;;7.13;2.17;;;;;;;;;;5072845;28;20048;-87
2022/05/20 14:38:32;;;;;;;6.15;2.60;;;;;;;;;;5072577;28;20104;-87
2022/05/20 14:41:03;;;;;;;4.07;2.50;;;;;;;;;;5072548;28;20056;-86
2022/05/20 14:43:38;;;;;;;6.35;2.67;;;;;;;;;;5072301;28;20143;-85
2022/05/20 14:46:05;;;;;;;5.07;3.08;;;;;;;;;;5072887;28;20048;-86
2022/05/20 14:48:44;;;;;;;5.53;2.42;;;;;;;;;;5071943;28;20057;-85
2022/05/20 14:51:30;;;;;;;5.97;3.10;;;;;;;;;;5072657;28;20048;-88
2022/05/20 14:54:00;;;;;;;24.13;6.00;;;;;;;;;;5071884;28;20052;-85
2022/05/20 14:56:38;;;;;;;10.13;3.17;;;;;;;;;;5071833;28;20052;-85
2022/05/20 14:59:06;;;;;;;8.00;2.90;;;;;;;;;;5072735;28;20106;-84
2022/05/20 15:01:35;;;;;;;3.90;2.55;;;;;;;;;;5071901;28;20055;-84
2022/05/20 15:04:02;;;;;;;6.40;2.70;;;;;;;;;;5071274;28;20052;-84
2022/05/20 15:06:33;;;;;;;6.57;2.60;;;;;;;;;;5071982;28;20053;-86
2022/05/20 15:09:06;;;;;;;8.57;3.17;;;;;;;;;;5073554;28;20063;-84
2022/05/20 15:11:35;;;;;;;6.53;2.90;;;;;;;;;;5074498;28;20058;-85
2022/05/20 15:14:03;;;;;;;4.60;2.63;;;;;;;;;;5071909;28;20508;-87
2022/05/20 15:16:31;;;;;;;6.88;2.78;;;;;;;;;;5071779;28;20489;-84
2022/05/20 15:18:58;;;;;;;8.20;2.70;;;;;;;;;;5071131;28;20079;-85
2022/05/20 15:21:27;;;;;;;4.05;2.55;;;;;;;;;;5072302;28;20135;-84
2022/05/20 15:24:08;;;;;;;9.55;2.95;;;;;;;;;;5072194;28;20123;-85
2022/05/20 15:26:37;;;;;;;13.95;3.35;;;;;;;;;;5071085;28;20127;-84
2022/05/20 15:29:05;;;;;;;4.68;2.97;;;;;;;;;;5071314;28;20108;-86
2022/05/20 15:37:25;;;;;;;5.10;2.97;;;;;;;;;;5072287;28;20056;-85
2022/05/20 15:39:54;;;;;;;11.70;3.42;;;;;;;;;;5069854;28;20052;-85
2022/05/20 15:42:24;;;;;;;9.30;3.55;;;;;;;;;;5071451;28;20080;-86
2022/05/20 15:44:52;;;;;;;6.97;3.20;;;;;;;;;;5072134;28;20094;-85
2022/05/20 15:47:20;;;;;;;4.15;2.80;;;;;;;;;;5071239;28;20107;-85
2022/05/20 15:49:47;;;;;;;5.88;2.95;;;;;;;;;;5072062;28;20058;-85